createdAt,value
2019-01-06T00:02:14.930Z,101679.34
2019-01-06T00:04:55.036Z,101693.05
2019-01-06T00:07:41.572Z,101692.39
2019-01-06T00:10:27.563Z,101690.97
2019-01-06T00:13:13.542Z,101683.65
2019-01-06T00:16:02.135Z,101688.90
2019-01-06T00:18:48.968Z,101697.91
2019-01-06T00:21:44.569Z,101694.83
2019-01-06T00:24:37.787Z,101698.27
2019-01-06T00:27:43.455Z,101687.70
2019-01-06T00:30:30.089Z,101689.83
2019-01-06T00:33:22.929Z,101680.50
2019-01-06T00:36:13.020Z,101693.14
2019-01-06T00:39:02.813Z,101689.60
2019-01-06T00:41:48.489Z,101691.68
2019-01-06T00:44:38.731Z,101686.23
2019-01-06T00:47:28.734Z,101684.75
2019-01-06T00:50:28.368Z,101686.23
2019-01-06T00:53:24.454Z,101691.64
2019-01-06T00:56:27.433Z,101694.20
2019-01-06T00:59:23.408Z,101686.43
2019-01-06T01:02:10.942Z,101694.49
2019-01-06T01:04:56.918Z,101691.16
2019-01-06T01:07:43.843Z,101696.16
2019-01-06T01:10:33.726Z,101690.80
2019-01-06T01:13:19.076Z,101689.89
2019-01-06T01:16:10.029Z,101687.87
2019-01-06T01:19:05.843Z,101688.23
2019-01-06T01:21:55.457Z,101688.83
2019-01-06T01:24:41.652Z,101684.03
2019-01-06T01:27:28.557Z,101696.64
2019-01-06T01:30:33.817Z,101703.18
2019-01-06T01:33:20.650Z,101696.41
2019-01-06T01:36:16.663Z,101698.09
2019-01-06T01:39:22.175Z,101698.97
2019-01-06T01:42:08.178Z,101701.69
2019-01-06T01:44:53.534Z,101697.97
2019-01-06T01:47:59.432Z,101707.13
2019-01-06T01:50:45.371Z,101698.48
2019-01-06T01:53:34.879Z,101701.92
2019-01-06T01:56:22.522Z,101692.84
2019-01-06T01:59:07.576Z,101694.72
2019-01-06T02:01:53.420Z,101695.20
2019-01-06T02:04:38.858Z,101688.72
2019-01-06T02:07:24.826Z,101689.67
2019-01-06T02:10:13.769Z,101696.92
2019-01-06T02:13:00.048Z,101701.02
2019-01-06T02:15:49.799Z,101701.24
2019-01-06T02:18:27.850Z,101699.00
2019-01-06T02:21:13.118Z,101702.14
2019-01-06T02:24:00.279Z,101698.52
2019-01-06T02:26:47.622Z,101708.89
2019-01-06T02:29:44.075Z,101697.45
2019-01-06T02:32:25.708Z,101703.41
2019-01-06T02:35:19.163Z,101718.25
2019-01-06T02:38:16.439Z,101714.30
2019-01-06T02:41:02.238Z,101722.34
2019-01-06T02:43:47.653Z,101710.86
2019-01-06T02:46:33.645Z,101697.74
2019-01-06T02:49:33.021Z,101711.25
2019-01-06T02:52:22.349Z,101720.78
2019-01-06T02:55:08.206Z,101714.49
2019-01-06T02:57:54.089Z,101734.72
2019-01-06T03:00:44.370Z,101726.22
2019-01-06T03:03:30.006Z,101719.61
2019-01-06T03:06:35.634Z,101726.55
2019-01-06T03:09:37.581Z,101729.98
2019-01-06T03:12:34.697Z,101715.98
2019-01-06T03:15:13.000Z,101707.05
2019-01-06T03:17:58.667Z,101713.88
2019-01-06T03:20:43.176Z,101711.25
2019-01-06T03:23:34.637Z,101707.72
2019-01-06T03:26:30.406Z,101711.80
2019-01-06T03:29:19.310Z,101701.83
2019-01-06T03:32:09.980Z,101700.46
2019-01-06T03:35:02.959Z,101697.48
2019-01-06T03:38:04.338Z,101691.06
2019-01-06T03:40:50.143Z,101693.88
2019-01-06T03:43:46.044Z,101688.78
2019-01-06T03:46:24.119Z,101685.83
2019-01-06T03:49:09.981Z,101689.17
2019-01-06T03:52:00.330Z,101696.42
2019-01-06T03:54:40.388Z,101689.33
2019-01-06T03:57:24.136Z,101686.97
2019-01-06T04:00:23.147Z,101683.84
2019-01-06T04:03:25.457Z,101682.20
2019-01-06T04:06:31.218Z,101683.45
2019-01-06T04:09:16.864Z,101684.69
2019-01-06T04:12:03.258Z,101675.49
2019-01-06T04:14:48.741Z,101674.35
2019-01-06T04:17:35.448Z,101678.30
2019-01-06T04:20:23.237Z,101674.11
2019-01-06T04:23:06.299Z,101675.92
2019-01-06T04:25:53.597Z,101681.86
2019-01-06T04:28:55.929Z,101672.86
2019-01-06T04:31:42.348Z,101682.56
2019-01-06T04:34:27.348Z,101681.23
2019-01-06T04:37:13.043Z,101683.56
2019-01-06T04:40:09.754Z,101689.06
2019-01-06T04:42:55.380Z,101693.25
2019-01-06T04:45:40.873Z,101685.83
2019-01-06T04:48:30.344Z,101686.48
2019-01-06T04:51:36.065Z,101690.34
2019-01-06T04:54:21.846Z,101689.17
2019-01-06T04:57:17.997Z,101685.20
2019-01-06T05:00:03.963Z,101687.63
2019-01-06T05:02:59.287Z,101685.42
2019-01-06T05:05:58.391Z,101685.02
2019-01-06T05:08:44.221Z,101676.98
2019-01-06T05:11:34.439Z,101684.47
2019-01-06T05:14:09.898Z,101683.56
2019-01-06T05:16:59.934Z,101688.68
2019-01-06T05:19:59.228Z,101686.18
2019-01-06T05:22:49.185Z,101682.27
2019-01-06T05:25:45.412Z,101687.19
2019-01-06T05:28:37.998Z,101684.47
2019-01-06T05:31:30.587Z,101691.73
2019-01-06T05:34:18.171Z,101684.63
2019-01-06T05:37:05.232Z,101686.28
2019-01-06T05:40:04.745Z,101683.78
2019-01-06T05:42:52.332Z,101683.44
2019-01-06T05:45:31.806Z,101683.78
2019-01-06T05:48:25.006Z,101684.47
2019-01-06T05:51:20.648Z,101682.48
2019-01-06T05:54:06.304Z,101687.43
2019-01-06T05:56:53.097Z,101687.92
2019-01-06T05:59:35.730Z,101682.48
2019-01-06T06:02:17.726Z,101685.55
2019-01-06T06:05:03.606Z,101685.74
2019-01-06T06:07:49.285Z,101697.05
2019-01-06T06:10:45.591Z,101703.86
2019-01-06T06:13:41.415Z,101700.46
2019-01-06T06:16:44.077Z,101713.12
2019-01-06T06:19:31.628Z,101711.91
2019-01-06T06:22:23.466Z,101712.75
2019-01-06T06:25:09.343Z,101719.20
2019-01-06T06:28:05.024Z,101719.52
2019-01-06T06:30:44.998Z,101722.22
2019-01-06T06:33:34.537Z,101723.09
2019-01-06T06:36:24.402Z,101727.48
2019-01-06T06:39:14.472Z,101730.38
2019-01-06T06:41:52.978Z,101734.62
2019-01-06T06:44:39.477Z,101727.48
2019-01-06T06:47:24.985Z,101735.00
2019-01-06T06:50:24.418Z,101724.66
2019-01-06T06:53:10.601Z,101725.69
2019-01-06T06:55:56.176Z,101738.26
2019-01-06T06:58:47.818Z,101727.57
2019-01-06T07:02:15.071Z,101734.37
2019-01-06T07:05:00.628Z,101735.42
2019-01-06T07:07:48.484Z,101742.72
2019-01-06T07:10:46.738Z,101742.85
2019-01-06T07:13:41.726Z,101747.25
2019-01-06T07:17:31.649Z,101749.46
2019-01-06T07:20:34.076Z,101752.53
2019-01-06T07:23:23.001Z,101761.70
2019-01-06T07:26:02.719Z,101768.50
2019-01-06T07:28:48.807Z,101768.38
2019-01-06T07:31:36.129Z,101770.75
2019-01-06T07:34:39.017Z,101774.45
2019-01-06T07:37:40.877Z,101771.28
2019-01-06T07:40:26.545Z,101777.55
2019-01-06T07:43:03.518Z,101783.97
2019-01-06T07:45:50.720Z,101796.58
2019-01-06T07:48:32.289Z,101791.45
2019-01-06T07:51:18.409Z,101804.48
2019-01-06T07:54:17.931Z,101803.13
2019-01-06T07:56:56.300Z,101802.98
2019-01-06T07:59:32.770Z,101802.94
2019-01-06T08:02:15.773Z,101805.33
2019-01-06T08:05:08.725Z,101813.80
2019-01-06T08:07:46.940Z,101816.33
2019-01-06T08:10:33.024Z,101814.81
2019-01-06T08:13:19.774Z,101821.02
2019-01-06T08:16:09.492Z,101828.48
2019-01-06T08:18:50.591Z,101827.50
2019-01-06T08:21:45.472Z,101831.86
2019-01-06T08:24:38.248Z,101835.59
2019-01-06T08:27:31.448Z,101834.86
2019-01-06T08:30:16.440Z,101834.02
2019-01-06T08:32:54.929Z,101834.78
2019-01-06T08:35:39.367Z,101837.30
2019-01-06T08:38:37.741Z,101838.95
2019-01-06T08:41:37.331Z,101840.13
2019-01-06T08:44:40.154Z,101839.83
2019-01-06T08:47:23.754Z,101849.14
2019-01-06T08:50:09.622Z,101849.59
2019-01-06T08:52:57.866Z,101850.94
2019-01-06T08:55:43.581Z,101852.30
2019-01-06T08:58:39.822Z,101851.59
2019-01-06T09:01:25.664Z,101853.66
2019-01-06T09:04:12.520Z,101852.00
2019-01-06T09:07:18.245Z,101850.55
2019-01-06T09:10:06.805Z,101844.15
2019-01-06T09:12:54.458Z,101851.48
2019-01-06T09:15:42.233Z,101859.02
2019-01-06T09:18:44.896Z,101856.91
2019-01-06T09:21:31.848Z,101863.91
2019-01-06T09:24:18.132Z,101865.98
2019-01-06T09:27:07.646Z,101860.53
2019-01-06T09:29:46.489Z,101866.48
2019-01-06T09:32:39.567Z,101866.97
2019-01-06T09:35:34.557Z,101865.32
2019-01-06T09:38:20.542Z,101874.23
2019-01-06T09:41:06.941Z,101872.87
2019-01-06T09:43:53.845Z,101878.04
2019-01-06T09:46:49.443Z,101875.03
2019-01-06T09:49:48.789Z,101878.44
2019-01-06T09:52:48.010Z,101874.47
2019-01-06T09:55:38.313Z,101875.14
2019-01-06T09:58:24.439Z,101871.59
2019-01-06T10:01:11.345Z,101866.20
2019-01-06T10:03:57.129Z,101864.96
2019-01-06T10:06:46.770Z,101850.79
2019-01-06T10:09:32.704Z,101868.02
2019-01-06T10:12:28.647Z,101870.08
2019-01-06T10:15:34.124Z,101864.68
2019-01-06T10:18:27.361Z,101867.36
2019-01-06T10:21:23.492Z,101873.28
2019-01-06T10:24:25.306Z,101863.64
2019-01-06T10:27:21.534Z,101866.05
2019-01-06T10:30:16.969Z,101866.17
2019-01-06T10:33:10.189Z,101870.27
2019-01-06T10:35:54.325Z,101871.31
2019-01-06T10:38:44.082Z,101866.95
2019-01-06T10:41:30.305Z,101864.60
2019-01-06T10:44:23.569Z,101866.13
2019-01-06T10:47:11.577Z,101866.86
2019-01-06T10:50:04.354Z,101869.69
2019-01-06T10:52:51.898Z,101869.16
2019-01-06T10:55:57.855Z,101869.12
2019-01-06T10:58:51.221Z,101865.81
2019-01-06T11:01:38.430Z,101861.03
2019-01-06T11:04:32.116Z,101861.64
2019-01-06T11:07:18.151Z,101859.19
2019-01-06T11:10:07.062Z,101870.37
2019-01-06T11:12:52.619Z,101863.58
2019-01-06T11:15:39.213Z,101869.78
2019-01-06T11:18:19.926Z,101865.33
2019-01-06T11:21:05.065Z,101865.49
2019-01-06T11:23:55.067Z,101868.16
2019-01-06T11:26:42.359Z,101862.14
2019-01-06T11:29:38.580Z,101871.09
2019-01-06T11:32:16.486Z,101865.94
2019-01-06T11:35:09.047Z,101868.89
2019-01-06T11:37:49.262Z,101867.63
2019-01-06T11:40:35.742Z,101866.12
2019-01-06T11:43:37.721Z,101865.31
2019-01-06T11:46:25.339Z,101873.55
2019-01-06T11:49:10.846Z,101863.95
2019-01-06T11:52:04.714Z,101862.26
2019-01-06T11:54:45.435Z,101857.77
2019-01-06T11:57:50.458Z,101861.34
2019-01-06T12:00:52.621Z,101857.66
2019-01-06T12:03:39.186Z,101861.38
2019-01-06T12:06:41.686Z,101859.00
2019-01-06T12:09:33.174Z,101856.98
2019-01-06T12:12:26.956Z,101850.90
2019-01-06T12:15:13.941Z,101853.42
2019-01-06T12:17:51.942Z,101849.30
2019-01-06T12:20:57.141Z,101847.34
2019-01-06T12:23:56.311Z,101848.71
2019-01-06T12:26:43.392Z,101851.36
2019-01-06T12:29:28.993Z,101860.40
2019-01-06T12:32:24.627Z,101853.16
2019-01-06T12:35:20.863Z,101861.55
2019-01-06T12:38:20.451Z,101862.71
2019-01-06T12:41:17.054Z,101868.27
2019-01-06T12:44:07.407Z,101872.45
2019-01-06T12:47:00.946Z,101866.48
2019-01-06T12:49:42.943Z,101865.92
2019-01-06T12:52:27.894Z,101867.74
2019-01-06T12:55:13.494Z,101879.19
2019-01-06T12:58:12.474Z,101869.58
2019-01-06T13:00:51.267Z,101876.55
2019-01-06T13:03:36.930Z,101863.79
2019-01-06T13:06:27.082Z,101874.34
2019-01-06T13:09:10.611Z,101875.55
2019-01-06T13:12:12.215Z,101880.39
2019-01-06T13:15:05.543Z,101880.20
2019-01-06T13:18:11.168Z,101891.78
2019-01-06T13:21:01.976Z,101892.73
2019-01-06T13:23:57.804Z,101885.65
2019-01-06T13:26:43.514Z,101897.02
2019-01-06T13:29:30.783Z,101898.06
2019-01-06T13:32:16.606Z,101900.77
2019-01-06T13:35:02.437Z,101903.12
2019-01-06T13:37:49.492Z,101905.85
2019-01-06T13:40:47.890Z,101911.98
2019-01-06T13:43:40.999Z,101907.19
2019-01-06T13:46:29.156Z,101924.02
2019-01-06T13:49:22.502Z,101925.17
2019-01-06T13:52:25.731Z,101922.44
2019-01-06T13:55:25.645Z,101924.19
2019-01-06T13:58:21.476Z,101926.91
2019-01-06T14:01:07.557Z,101935.59
2019-01-06T14:03:52.610Z,101927.27
2019-01-06T14:06:53.432Z,101924.49
2019-01-06T14:09:59.155Z,101929.02
2019-01-06T14:12:51.974Z,101930.19
2019-01-06T14:15:37.800Z,101930.92
2019-01-06T14:18:23.849Z,101937.50
2019-01-06T14:21:15.274Z,101946.38
2019-01-06T14:24:20.542Z,101937.86
2019-01-06T14:27:12.855Z,101945.69
2019-01-06T14:30:08.920Z,101951.73
2019-01-06T14:32:59.464Z,101953.91
2019-01-06T14:35:46.758Z,101958.00
2019-01-06T14:38:34.049Z,101958.11
2019-01-06T14:41:20.258Z,101957.13
2019-01-06T14:44:10.982Z,101961.30
2019-01-06T14:47:01.030Z,101956.88
2019-01-06T14:49:49.106Z,101958.23
2019-01-06T14:52:35.464Z,101957.72
2019-01-06T14:55:24.369Z,101961.61
2019-01-06T14:58:11.946Z,101965.52
2019-01-06T15:01:12.591Z,101959.81
2019-01-06T15:03:59.820Z,101971.38
2019-01-06T15:06:59.310Z,101965.23
2019-01-06T15:09:58.239Z,101966.70
2019-01-06T15:12:51.578Z,101972.80
2019-01-06T15:15:37.240Z,101970.59
2019-01-06T15:18:43.122Z,101971.63
2019-01-06T15:21:34.333Z,101975.95
2019-01-06T15:24:22.468Z,101972.70
2019-01-06T15:27:02.100Z,101974.82
2019-01-06T15:30:01.686Z,101972.23
2019-01-06T15:32:54.705Z,101977.03
2019-01-06T15:35:40.825Z,101987.89
2019-01-06T15:38:29.498Z,101993.97
2019-01-06T15:41:14.229Z,101995.04
2019-01-06T15:43:59.838Z,101987.82
2019-01-06T15:46:58.912Z,101995.54
2019-01-06T15:49:50.757Z,102000.69
2019-01-06T15:52:49.561Z,101994.07
2019-01-06T15:55:52.134Z,101998.15
2019-01-06T15:58:52.128Z,101995.12
2019-01-06T16:01:41.950Z,101994.77
2019-01-06T16:04:19.784Z,102003.48
2019-01-06T16:07:00.721Z,102008.83
2019-01-06T16:10:00.280Z,102010.57
2019-01-06T16:12:53.537Z,102013.43
2019-01-06T16:15:43.930Z,102018.42
2019-01-06T16:18:37.121Z,102008.70
2019-01-06T16:21:29.249Z,102015.05
2019-01-06T16:24:15.638Z,102012.86
2019-01-06T16:27:09.874Z,102017.59
2019-01-06T16:29:57.421Z,102017.00
2019-01-06T16:32:50.728Z,102019.54
2019-01-06T16:35:36.497Z,102023.05
2019-01-06T16:38:29.023Z,102024.14
2019-01-06T16:41:04.766Z,102024.20
2019-01-06T16:43:46.576Z,102030.74
2019-01-06T16:46:49.188Z,102030.09
2019-01-06T16:49:34.610Z,102033.67
2019-01-06T16:52:33.243Z,102036.59
2019-01-06T16:55:19.102Z,102029.07
2019-01-06T16:58:12.938Z,102028.75
2019-01-06T17:00:59.870Z,102027.88
2019-01-06T17:03:52.669Z,102030.67
2019-01-06T17:06:43.535Z,102030.81
2019-01-06T17:09:45.724Z,102040.86
2019-01-06T17:12:40.672Z,102032.68
2019-01-06T17:15:27.858Z,102033.20
2019-01-06T17:18:08.886Z,102023.48
2019-01-06T17:20:55.074Z,102026.03
2019-01-06T17:23:51.182Z,102031.70
2019-01-06T17:26:56.584Z,102028.28
2019-01-06T17:29:39.136Z,102025.95
2019-01-06T17:32:26.173Z,102026.27
2019-01-06T17:35:29.129Z,102023.73
2019-01-06T17:38:16.020Z,102022.56
2019-01-06T17:41:00.738Z,102017.84
2019-01-06T17:43:47.522Z,102018.50
2019-01-06T17:46:42.467Z,102021.73
2019-01-06T17:49:20.346Z,102015.83
2019-01-06T17:52:04.060Z,102025.92
2019-01-06T17:54:48.332Z,102029.85
2019-01-06T17:57:38.078Z,102030.05
2019-01-06T18:00:40.126Z,102034.45
2019-01-06T18:03:33.360Z,102033.80
2019-01-06T18:06:22.280Z,102040.45
2019-01-06T18:09:09.571Z,102042.33
2019-01-06T18:11:55.288Z,102042.36
2019-01-06T18:15:01.001Z,102045.56
2019-01-06T18:17:43.999Z,102042.17
2019-01-06T18:20:29.012Z,102043.69
2019-01-06T18:23:24.241Z,102042.33
2019-01-06T18:26:10.859Z,102050.66
2019-01-06T18:29:16.935Z,102059.16
2019-01-06T18:32:04.489Z,102053.39
2019-01-06T18:34:52.867Z,102060.33
2019-01-06T18:37:49.703Z,102053.20
2019-01-06T18:40:35.479Z,102055.89
2019-01-06T18:43:21.572Z,102057.77
2019-01-06T18:46:21.411Z,102055.41
2019-01-06T18:49:12.060Z,102057.77
2019-01-06T18:52:05.182Z,102056.07
2019-01-06T18:54:50.872Z,102056.77
2019-01-06T18:57:35.764Z,102061.51
2019-01-06T19:00:33.296Z,102052.54
2019-01-06T19:03:39.013Z,102055.08
2019-01-06T19:06:28.957Z,102055.26
2019-01-06T19:09:31.689Z,102056.77
2019-01-06T19:12:14.556Z,102053.53
2019-01-06T19:15:03.304Z,102059.97
2019-01-06T19:17:51.251Z,102059.82
2019-01-06T19:20:56.171Z,102062.36
2019-01-06T19:23:49.633Z,102055.08
2019-01-06T19:26:48.955Z,102063.56
2019-01-06T19:29:38.605Z,102063.75
2019-01-06T19:32:25.907Z,102063.89
2019-01-06T19:35:22.831Z,102061.55
2019-01-06T19:38:08.673Z,102063.94
2019-01-06T19:40:58.815Z,102069.01
2019-01-06T19:43:44.761Z,102065.44
2019-01-06T19:46:34.926Z,102070.00
2019-01-06T19:49:24.870Z,102070.55
2019-01-06T19:52:12.951Z,102075.47
2019-01-06T19:54:58.726Z,102072.57
2019-01-06T19:57:47.227Z,102079.88
2019-01-06T20:00:22.964Z,102081.39
2019-01-06T20:03:04.573Z,102082.94
2019-01-06T20:06:00.841Z,102091.61
2019-01-06T20:08:47.242Z,102085.66
2019-01-06T20:11:26.970Z,102083.09
2019-01-06T20:14:16.058Z,102082.24
2019-01-06T20:17:02.078Z,102087.02
2019-01-06T20:19:49.967Z,102083.42
2019-01-06T20:22:35.623Z,102085.95
2019-01-06T20:25:16.498Z,102091.77
2019-01-06T20:28:05.520Z,102095.52
2019-01-06T20:31:04.873Z,102096.05
2019-01-06T20:34:01.980Z,102095.03
2019-01-06T20:36:58.517Z,102099.08
2019-01-06T20:39:42.473Z,102102.83
2019-01-06T20:42:21.894Z,102101.13
2019-01-06T20:45:08.434Z,102104.70
2019-01-06T20:48:07.799Z,102107.05
2019-01-06T20:50:57.272Z,102100.77
2019-01-06T20:53:44.382Z,102107.42
2019-01-06T20:56:44.489Z,102106.36
2019-01-06T20:59:43.393Z,102104.67
2019-01-06T21:02:30.466Z,102104.52
2019-01-06T21:05:22.402Z,102103.34
2019-01-06T21:08:14.960Z,102101.80
2019-01-06T21:11:05.239Z,102093.12
2019-01-06T21:13:55.608Z,102098.77
2019-01-06T21:16:38.700Z,102096.05
2019-01-06T21:19:24.402Z,102102.86
2019-01-06T21:22:14.774Z,102106.42
2019-01-06T21:25:10.437Z,102108.29
2019-01-06T21:28:07.661Z,102113.55
2019-01-06T21:31:12.274Z,102113.88
2019-01-06T21:33:57.943Z,102112.22
2019-01-06T21:36:40.013Z,102117.30
2019-01-06T21:39:31.040Z,102114.42
2019-01-06T21:42:17.571Z,102110.49
2019-01-06T21:45:14.429Z,102114.23
2019-01-06T21:48:14.265Z,102111.70
2019-01-06T21:51:06.590Z,102112.73
2019-01-06T21:54:04.149Z,102106.59
2019-01-06T21:56:52.750Z,102115.27
2019-01-06T21:59:46.642Z,102113.23
2019-01-06T22:02:51.573Z,102112.73
2019-01-06T22:05:44.295Z,102120.03
2019-01-06T22:08:39.678Z,102115.11
2019-01-06T22:11:41.340Z,102114.94
2019-01-06T22:14:31.838Z,102110.70
2019-01-06T22:17:13.405Z,102109.86
2019-01-06T22:20:00.201Z,102107.80
2019-01-06T22:22:47.054Z,102102.36
2019-01-06T22:25:36.569Z,102104.23
2019-01-06T22:28:23.357Z,102110.52
2019-01-06T22:31:10.043Z,102104.74
2019-01-06T22:34:06.587Z,102101.52
2019-01-06T22:37:02.990Z,102103.05
2019-01-06T22:39:42.557Z,102102.72
2019-01-06T22:42:26.905Z,102098.46
2019-01-06T22:45:12.210Z,102098.97
2019-01-06T22:47:58.118Z,102103.23
2019-01-06T22:50:43.785Z,102105.28
2019-01-06T22:53:34.021Z,102103.73
2019-01-06T22:56:25.495Z,102110.20
2019-01-06T22:59:22.270Z,102102.05
2019-01-06T23:02:13.413Z,102108.85
2019-01-06T23:05:06.323Z,102108.48
2019-01-06T23:07:55.693Z,102105.97
2019-01-06T23:10:42.986Z,102100.34
2019-01-06T23:13:22.934Z,102108.17
2019-01-06T23:16:09.000Z,102107.48
2019-01-06T23:18:55.054Z,102108.00
2019-01-06T23:21:53.111Z,102107.32
2019-01-06T23:24:51.313Z,102108.00
2019-01-06T23:27:50.875Z,102110.53
2019-01-06T23:30:46.760Z,102111.04
2019-01-06T23:33:28.137Z,102110.37
2019-01-06T23:36:12.994Z,102103.94
2019-01-06T23:39:05.537Z,102101.73
2019-01-06T23:41:48.756Z,102102.91
2019-01-06T23:44:38.422Z,102108.34
2019-01-06T23:47:25.624Z,102102.21
2019-01-06T23:50:09.049Z,102103.09
2019-01-06T23:53:09.683Z,102106.82
2019-01-06T23:55:55.218Z,102107.34
2019-01-06T23:58:41.654Z,102109.70
